Time;durP1;ratioP1;P1;durP2;ratioP2;P2;SDS_P1;SDS_P2;PMS_P1;PMS_P2;Temp;Humidity;BMP_temperature;BMP_pressure;BME280_temperature;BME280_humidity;BME280_pressure;Samples;Min_cycle;Max_cycle;Signal;HPM_P1;HPM_P2
2024/03/15 00:02:07;;;;;;;4.97;1.45;;;14.20;71.40;;;;;;5123848;28;20089;-70
2024/03/15 00:04:52;;;;;;;4.13;1.80;;;14.20;71.40;;;;;;5123147;27;20117;-70
2024/03/15 00:07:36;;;;;;;4.13;1.50;;;14.10;71.30;;;;;;5123062;28;20151;-71
2024/03/15 00:10:21;;;;;;;4.28;2.15;;;14.10;71.30;;;;;;5122978;28;20084;-70
2024/03/15 00:13:11;;;;;;;3.80;1.40;;;14.10;71.30;;;;;;5123125;27;20042;-70
2024/03/15 00:15:55;;;;;;;3.20;1.25;;;14.10;71.30;;;;;;5121683;28;20050;-71
2024/03/15 00:18:40;;;;;;;4.22;1.35;;;14.10;71.30;;;;;;5122725;28;20039;-70
2024/03/15 00:21:24;;;;;;;4.68;1.25;;;14.10;71.40;;;;;;5121820;28;20093;-70
2024/03/15 00:24:08;;;;;;;5.13;1.40;;;14.10;71.40;;;;;;5121801;28;20386;-72
2024/03/15 00:26:53;;;;;;;7.80;2.65;;;14.00;71.20;;;;;;5121954;28;20038;-74
2024/03/15 00:29:38;;;;;;;3.13;1.33;;;14.00;71.20;;;;;;5122472;28;20042;-74
2024/03/15 00:32:25;;;;;;;3.58;1.27;;;14.00;71.30;;;;;;5122833;28;20039;-73
2024/03/15 00:35:10;;;;;;;5.03;1.35;;;14.00;71.30;;;;;;5122703;28;20099;-72
2024/03/15 00:37:54;;;;;;;4.20;1.88;;;14.00;71.30;;;;;;5122177;28;20039;-71
2024/03/15 00:40:39;;;;;;;7.22;1.55;;;14.00;71.30;;;;;;5123031;28;20053;-71
2024/03/15 00:43:23;;;;;;;4.20;1.30;;;13.90;71.20;;;;;;5120913;28;20034;-70
2024/03/15 00:46:08;;;;;;;4.63;1.40;;;14.00;71.40;;;;;;5122474;28;20501;-70
2024/03/15 00:48:53;;;;;;;3.55;1.33;;;14.00;71.40;;;;;;5121268;28;20481;-70
2024/03/15 00:51:40;;;;;;;4.57;1.83;;;13.90;71.30;;;;;;5122263;28;20096;-69
2024/03/15 00:54:27;;;;;;;5.95;1.80;;;14.00;71.40;;;;;;5122072;28;20134;-68
2024/03/15 00:57:12;;;;;;;4.70;1.30;;;13.90;71.30;;;;;;5122304;28;20611;-69
2024/03/15 00:59:56;;;;;;;3.53;1.52;;;13.90;71.30;;;;;;5122192;28;20402;-71
2024/03/15 01:02:42;;;;;;;5.63;1.27;;;13.90;71.30;;;;;;5122430;28;20062;-69
2024/03/15 01:05:27;;;;;;;6.10;1.63;;;13.90;71.40;;;;;;5122395;28;20104;-69
2024/03/15 01:08:11;;;;;;;4.65;1.95;;;13.90;71.40;;;;;;5107789;28;20108;-69
2024/03/15 01:10:56;;;;;;;9.52;1.85;;;13.90;71.40;;;;;;5108499;28;20093;-70
2024/03/15 01:13:41;;;;;;;4.03;1.42;;;13.80;71.20;;;;;;5107750;28;20559;-70
2024/03/15 01:16:26;;;;;;;8.25;2.28;;;13.80;71.20;;;;;;5107581;28;20055;-69
2024/03/15 01:19:11;;;;;;;5.38;1.70;;;13.80;71.30;;;;;;5108179;28;20077;-71
2024/03/15 01:21:56;;;;;;;3.53;1.88;;;13.80;71.30;;;;;;5108293;28;20043;-68
2024/03/15 01:24:41;;;;;;;7.22;1.48;;;13.80;71.40;;;;;;5108180;28;20127;-70
2024/03/15 01:27:26;;;;;;;6.38;1.80;;;13.80;71.40;;;;;;5106556;28;20039;-70
2024/03/15 01:30:10;;;;;;;4.70;1.48;;;13.80;71.40;;;;;;5107366;28;20092;-71
2024/03/15 01:32:55;;;;;;;3.15;1.25;;;13.70;71.30;;;;;;5107924;28;20394;-72
2024/03/15 01:35:39;;;;;;;6.10;1.52;;;13.70;71.30;;;;;;5107841;28;20107;-70
2024/03/15 01:38:23;;;;;;;7.28;2.05;;;13.70;71.30;;;;;;5107660;28;20106;-71
2024/03/15 01:41:08;;;;;;;5.57;2.38;;;13.70;71.30;;;;;;5105823;28;20173;-74
2024/03/15 01:43:54;;;;;;;6.57;2.38;;;13.70;71.30;;;;;;5107986;28;20038;-73
2024/03/15 01:46:40;;;;;;;5.00;1.92;;;13.70;71.30;;;;;;5108209;28;20038;-71
2024/03/15 01:49:27;;;;;;;6.63;1.40;;;13.70;71.40;;;;;;5107465;28;20092;-71
2024/03/15 01:52:13;;;;;;;6.45;2.38;;;13.70;71.40;;;;;;5105488;28;20558;-70
2024/03/15 01:54:58;;;;;;;8.27;1.55;;;13.70;71.40;;;;;;5107378;28;20078;-71
2024/03/15 01:57:43;;;;;;;6.60;1.98;;;13.70;71.40;;;;;;5105757;28;20093;-72
2024/03/15 02:00:27;;;;;;;7.43;1.75;;;13.70;71.50;;;;;;5084270;28;20077;-70
2024/03/15 02:03:15;;;;;;;7.55;1.98;;;13.70;71.50;;;;;;5107610;28;20074;-70
2024/03/15 02:06:00;;;;;;;5.88;2.08;;;13.70;71.50;;;;;;5106337;28;20123;-70
2024/03/15 02:08:44;;;;;;;6.80;1.85;;;13.70;71.50;;;;;;5107531;28;20108;-70
2024/03/15 02:11:29;;;;;;;6.03;1.90;;;13.70;71.50;;;;;;5107605;28;20091;-73
2024/03/15 02:14:14;;;;;;;8.82;1.95;;;13.60;71.40;;;;;;5106719;28;20074;-72
2024/03/15 02:16:58;;;;;;;6.55;2.10;;;13.60;71.40;;;;;;5106562;28;20038;-73
2024/03/15 02:19:47;;;;;;;6.88;1.65;;;13.60;71.40;;;;;;5106063;28;20074;-73
2024/03/15 02:22:31;;;;;;;5.22;2.33;;;13.60;71.40;;;;;;5107052;28;20042;-74
2024/03/15 02:25:18;;;;;;;7.00;1.63;;;13.60;71.40;;;;;;5107162;28;20414;-74
2024/03/15 02:28:06;;;;;;;7.68;2.13;;;13.60;72.00;;;;;;5106869;28;20403;-73
2024/03/15 02:30:50;;;;;;;6.38;1.60;;;13.60;71.40;;;;;;5106826;22;20043;-76
2024/03/15 02:33:34;;;;;;;4.82;1.48;;;13.60;71.50;;;;;;5088668;28;20493;-79
2024/03/15 02:36:19;;;;;;;5.65;1.70;;;13.60;71.40;;;;;;5072965;28;20133;-76
2024/03/15 02:39:04;;;;;;;5.10;1.48;;;13.60;71.50;;;;;;5087953;28;20181;-76
2024/03/15 02:41:48;;;;;;;8.50;2.42;;;13.60;71.50;;;;;;5088000;28;20039;-78
2024/03/15 02:44:33;;;;;;;10.15;2.30;;;13.60;71.50;;;;;;5088155;28;20039;-78
2024/03/15 02:47:18;;;;;;;6.57;1.85;;;13.60;71.50;;;;;;5090324;28;20369;-78
2024/03/15 02:50:03;;;;;;;6.93;2.30;;;13.60;71.50;;;;;;5076095;28;20098;-76
2024/03/15 02:52:48;;;;;;;6.35;2.00;;;13.60;71.50;;;;;;5091310;28;20115;-77
2024/03/15 02:55:32;;;;;;;8.43;2.78;;;13.60;71.50;;;;;;5076040;28;20313;-77
2024/03/15 02:58:19;;;;;;;6.70;1.30;;;13.60;71.50;;;;;;5090983;28;20494;-77
2024/03/15 03:01:03;;;;;;;7.30;1.60;;;13.60;71.50;;;;;;5084487;28;20084;-77
2024/03/15 03:03:48;;;;;;;6.38;1.88;;;13.60;71.50;;;;;;5111684;28;20111;-77
2024/03/15 03:06:36;;;;;;;6.97;2.47;;;13.60;71.50;;;;;;5111787;28;20505;-77
2024/03/15 03:09:24;;;;;;;9.73;2.00;;;13.60;71.50;;;;;;5111520;28;20062;-78
2024/03/15 03:12:09;;;;;;;7.05;1.52;;;13.60;71.60;;;;;;5082518;28;20109;-78
2024/03/15 03:14:53;;;;;;;10.00;2.85;;;13.60;71.60;;;;;;5110916;28;20054;-77
2024/03/15 03:17:38;;;;;;;7.43;1.83;;;13.50;71.40;;;;;;5095784;28;20398;-77
2024/03/15 03:20:23;;;;;;;6.15;2.20;;;13.50;71.40;;;;;;5110975;28;20504;-77
2024/03/15 03:23:08;;;;;;;5.68;2.42;;;13.60;71.60;;;;;;5096291;28;20035;-77
2024/03/15 03:25:54;;;;;;;9.65;3.03;;;13.50;71.40;;;;;;5111789;28;20100;-77
2024/03/15 03:28:39;;;;;;;8.20;2.47;;;13.50;71.40;;;;;;5082003;28;20042;-77
2024/03/15 03:31:23;;;;;;;7.75;1.70;;;13.50;71.40;;;;;;5111061;28;20043;-76
2024/03/15 03:34:07;;;;;;;7.57;2.20;;;13.50;71.40;;;;;;5095840;28;20092;-78
2024/03/15 03:36:52;;;;;;;9.57;2.03;;;13.50;71.40;;;;;;5111225;28;20495;-78
2024/03/15 03:39:37;;;;;;;6.07;1.67;;;13.50;71.50;;;;;;5110518;28;20042;-77
2024/03/15 03:42:22;;;;;;;6.25;1.80;;;13.50;71.50;;;;;;5111109;28;20047;-77
2024/03/15 03:45:15;;;;;;;9.60;2.05;;;13.50;71.50;;;;;;5110975;28;20089;-76
2024/03/15 03:48:00;;;;;;;5.25;1.88;;;13.50;71.50;;;;;;5110403;28;20502;-78
2024/03/15 03:50:44;;;;;;;6.35;1.70;;;13.50;71.50;;;;;;5110410;28;20406;-75
2024/03/15 03:53:30;;;;;;;3.70;2.00;;;13.50;71.50;;;;;;5095021;28;20069;-76
2024/03/15 03:56:15;;;;;;;6.63;1.60;;;13.50;71.50;;;;;;5109785;28;20082;-76
2024/03/15 03:58:59;;;;;;;11.57;2.00;;;13.50;71.50;;;;;;5110169;28;20084;-77
2024/03/15 04:01:44;;;;;;;5.38;1.50;;;13.50;71.60;;;;;;5094677;28;20093;-77
2024/03/15 04:04:28;;;;;;;7.68;1.83;;;13.50;71.50;;;;;;5110337;28;20113;-77
2024/03/15 04:07:13;;;;;;;7.43;2.00;;;13.50;71.60;;;;;;5110406;28;20031;-78
2024/03/15 04:09:57;;;;;;;10.15;2.58;;;13.50;71.60;;;;;;5110630;28;20116;-75
2024/03/15 04:12:45;;;;;;;6.07;1.60;;;13.50;71.60;;;;;;5110695;28;20038;-78
2024/03/15 04:15:29;;;;;;;4.85;2.40;;;13.40;71.40;;;;;;5093099;28;20093;-76
2024/03/15 04:18:15;;;;;;;6.28;2.72;;;13.40;71.40;;;;;;5092544;28;20289;-76
2024/03/15 04:20:59;;;;;;;7.68;1.85;;;13.40;71.40;;;;;;5109504;28;20088;-76
2024/03/15 04:23:43;;;;;;;8.65;2.10;;;13.40;71.50;;;;;;5110074;28;20096;-76
2024/03/15 04:26:29;;;;;;;6.82;1.85;;;13.40;71.50;;;;;;5107719;28;20070;-77
2024/03/15 04:29:17;;;;;;;10.75;2.35;;;13.40;71.50;;;;;;5109347;28;20057;-76
2024/03/15 04:32:02;;;;;;;8.05;2.13;;;13.40;71.50;;;;;;5110137;28;20054;-76
2024/03/15 04:34:47;;;;;;;5.53;1.77;;;13.40;71.50;;;;;;5110728;28;20511;-76
2024/03/15 04:37:31;;;;;;;8.55;1.80;;;13.40;71.50;;;;;;5089287;28;20177;-77
2024/03/15 04:40:16;;;;;;;8.85;1.90;;;13.40;72.10;;;;;;5094211;28;20039;-76
2024/03/15 04:43:01;;;;;;;6.45;1.85;;;13.40;71.60;;;;;;5092899;28;20035;-77
2024/03/15 04:45:48;;;;;;;5.20;1.52;;;13.40;71.60;;;;;;5094596;28;20120;-77
2024/03/15 04:48:33;;;;;;;8.05;2.85;;;13.40;71.60;;;;;;5109902;28;20512;-78
2024/03/15 04:51:18;;;;;;;6.00;1.30;;;13.40;71.60;;;;;;5099684;28;20039;-77
2024/03/15 04:54:02;;;;;;;7.53;3.33;;;13.40;71.60;;;;;;5114639;28;20397;-77
2024/03/15 04:56:47;;;;;;;9.55;1.98;;;13.40;71.60;;;;;;5079236;28;20047;-78
2024/03/15 04:59:32;;;;;;;8.40;1.80;;;13.30;71.40;;;;;;5106893;28;20440;-78
2024/03/15 05:02:16;;;;;;;6.95;2.38;;;13.30;71.40;;;;;;5114454;28;20047;-77
2024/03/15 05:05:01;;;;;;;5.70;1.95;;;13.30;71.50;;;;;;5099415;28;20538;-78
2024/03/15 05:07:46;;;;;;;7.30;1.75;;;13.30;71.50;;;;;;5099421;28;20038;-77
2024/03/15 05:10:30;;;;;;;6.05;1.70;;;13.30;71.50;;;;;;5114698;28;20579;-77
2024/03/15 05:13:15;;;;;;;12.55;2.45;;;13.30;71.50;;;;;;5099164;28;20043;-77
2024/03/15 05:15:59;;;;;;;8.82;3.20;;;13.30;71.60;;;;;;5092676;28;20035;-78
2024/03/15 05:18:44;;;;;;;5.22;2.10;;;13.30;71.60;;;;;;5106614;28;20045;-76
2024/03/15 05:21:29;;;;;;;6.05;1.70;;;13.30;71.60;;;;;;5084593;28;20093;-78
2024/03/15 05:24:13;;;;;;;6.53;2.17;;;13.30;71.60;;;;;;5114241;28;20026;-77
2024/03/15 05:26:58;;;;;;;8.88;1.95;;;13.30;71.60;;;;;;5097992;28;20077;-78
2024/03/15 05:29:43;;;;;;;5.82;1.48;;;13.30;71.70;;;;;;5114014;28;20051;-77
2024/03/15 05:32:30;;;;;;;8.27;1.98;;;13.30;71.70;;;;;;5098386;28;20059;-76
2024/03/15 05:35:18;;;;;;;9.88;1.75;;;13.30;71.70;;;;;;5114230;28;20562;-76
2024/03/15 05:38:03;;;;;;;10.80;2.85;;;13.30;71.70;;;;;;5113913;28;20051;-78
2024/03/15 05:40:48;;;;;;;14.52;2.97;;;13.30;71.70;;;;;;5113610;28;20568;-76
2024/03/15 05:43:33;;;;;;;10.73;2.72;;;13.30;71.70;;;;;;5113528;28;20042;-80
2024/03/15 05:46:17;;;;;;;7.90;1.98;;;13.30;71.70;;;;;;5113803;28;20027;-78
2024/03/15 05:49:02;;;;;;;7.85;2.33;;;13.30;71.70;;;;;;5092555;28;20433;-78
2024/03/15 05:51:47;;;;;;;9.27;2.30;;;13.30;71.80;;;;;;5109758;28;20038;-77
2024/03/15 05:54:33;;;;;;;7.05;1.50;;;13.30;71.80;;;;;;5094112;28;20539;-77
2024/03/15 05:57:18;;;;;;;9.80;2.55;;;13.30;71.80;;;;;;5109854;28;20034;-75
2024/03/15 06:00:11;;;;;;;9.07;3.42;;;13.30;71.80;;;;;;5108967;28;20146;-77
2024/03/15 06:02:58;;;;;;;7.75;2.15;;;13.30;71.80;;;;;;5092611;28;20139;-76
2024/03/15 06:05:43;;;;;;;7.03;1.95;;;13.30;71.80;;;;;;5091171;28;20039;-77
2024/03/15 06:08:29;;;;;;;8.55;2.28;;;13.30;71.80;;;;;;5119610;28;20042;-77
2024/03/15 06:11:13;;;;;;;5.88;1.85;;;13.30;71.80;;;;;;5128035;27;20381;-77
2024/03/15 06:13:59;;;;;;;5.28;1.88;;;13.30;71.80;;;;;;5132663;27;20050;-77
2024/03/15 06:16:44;;;;;;;6.68;1.65;;;13.30;71.80;;;;;;5129400;28;20029;-77
2024/03/15 06:19:29;;;;;;;5.90;1.92;;;13.30;71.80;;;;;;5129072;27;20051;-78
2024/03/15 06:22:14;;;;;;;5.88;1.85;;;13.30;71.90;;;;;;5098203;28;20034;-78
2024/03/15 06:24:59;;;;;;;6.63;2.58;;;13.30;71.90;;;;;;5126956;28;20053;-77
2024/03/15 06:27:44;;;;;;;8.52;2.08;;;13.30;71.90;;;;;;5125412;27;20038;-77
2024/03/15 06:30:28;;;;;;;6.55;1.85;;;13.30;71.90;;;;;;5107422;28;20035;-78
2024/03/15 06:33:13;;;;;;;9.93;2.05;;;13.30;71.90;;;;;;5106962;28;20054;-78
2024/03/15 06:36:00;;;;;;;7.55;1.58;;;13.30;71.90;;;;;;5106373;28;20091;-77
2024/03/15 06:41:37;;;;;;;8.07;2.20;;;13.30;72.00;;;;;;5107522;28;20066;-77
2024/03/15 06:44:35;;;;;;;5.28;1.88;;;13.30;72.00;;;;;;5092358;28;20093;-78
2024/03/15 06:47:28;;;;;;;8.32;2.15;;;13.30;72.00;;;;;;5107298;28;20043;-77
2024/03/15 06:52:57;;;;;;;5.15;1.38;;;13.30;72.00;;;;;;5090462;28;20047;-78
2024/03/15 06:55:43;;;;;;;8.20;2.53;;;13.30;72.00;;;;;;5107156;28;20057;-78
2024/03/15 06:58:28;;;;;;;6.53;1.52;;;13.30;72.00;;;;;;5081136;28;20144;-78
2024/03/15 07:01:13;;;;;;;6.03;1.80;;;13.30;72.00;;;;;;5105613;28;20064;-80
2024/03/15 07:03:58;;;;;;;7.70;1.65;;;13.30;72.00;;;;;;5124542;27;20196;-77
2024/03/15 07:06:42;;;;;;;7.57;1.83;;;13.40;72.20;;;;;;5124312;27;20165;-78
2024/03/15 07:09:27;;;;;;;5.10;1.42;;;13.40;72.20;;;;;;5104019;28;20058;-79
2024/03/15 07:12:14;;;;;;;7.50;1.60;;;13.40;72.30;;;;;;5091505;27;20070;-79
2024/03/15 07:14:59;;;;;;;6.32;1.95;;;13.40;72.70;;;;;;5102649;28;20123;-78
2024/03/15 07:17:44;;;;;;;4.65;1.38;;;13.50;73.20;;;;;;5108843;27;20120;-79
2024/03/15 07:20:28;;;;;;;5.93;1.58;;;13.60;73.40;;;;;;5090190;28;20451;-77
2024/03/15 07:23:15;;;;;;;6.05;1.60;;;13.60;73.40;;;;;;5115739;27;20105;-77
2024/03/15 07:26:00;;;;;;;6.97;1.90;;;13.70;73.70;;;;;;5106104;28;20115;-77
2024/03/15 07:28:44;;;;;;;4.05;2.10;;;13.70;73.90;;;;;;5114110;27;20038;-78
2024/03/15 07:31:32;;;;;;;5.68;2.70;;;13.70;73.90;;;;;;5105541;28;20054;-77
2024/03/15 07:34:16;;;;;;;6.18;2.45;;;13.80;74.20;;;;;;5089538;28;20042;-77
2024/03/15 07:37:01;;;;;;;6.85;2.42;;;13.90;74.40;;;;;;5104792;28;20043;-77
2024/03/15 07:39:45;;;;;;;4.43;2.25;;;13.90;74.50;;;;;;5104213;28;20038;-78
2024/03/15 07:42:31;;;;;;;7.35;2.33;;;14.10;74.80;;;;;;5089457;28;20144;-77
2024/03/15 07:45:16;;;;;;;7.22;1.95;;;14.10;74.80;;;;;;5104808;28;20153;-78
2024/03/15 07:48:01;;;;;;;7.82;2.20;;;14.20;75.00;;;;;;5089078;28;20084;-78
2024/03/15 07:50:45;;;;;;;6.72;2.38;;;14.30;75.10;;;;;;5104417;28;20432;-78
2024/03/15 07:53:30;;;;;;;4.40;2.20;;;14.40;75.20;;;;;;5099352;28;20034;-76
2024/03/15 07:56:15;;;;;;;6.90;2.05;;;14.50;75.30;;;;;;5110214;28;20046;-75
2024/03/15 07:58:59;;;;;;;6.07;2.10;;;14.50;75.30;;;;;;5112927;28;20034;-76
2024/03/15 08:01:44;;;;;;;5.63;2.15;;;14.50;75.20;;;;;;5086090;28;20055;-79
2024/03/15 08:04:30;;;;;;;7.03;2.05;;;14.60;75.40;;;;;;5070942;28;20101;-80
2024/03/15 08:07:15;;;;;;;7.00;1.95;;;14.60;75.40;;;;;;5056035;28;20109;-78
2024/03/15 08:09:59;;;;;;;6.45;1.88;;;14.60;75.40;;;;;;5085195;28;20058;-79
2024/03/15 08:12:44;;;;;;;4.95;1.88;;;14.70;75.60;;;;;;5099444;28;20046;-78
2024/03/15 08:15:32;;;;;;;3.35;1.42;;;14.70;75.60;;;;;;5125268;27;20079;-79
2024/03/15 08:18:16;;;;;;;5.35;1.67;;;14.80;75.80;;;;;;5129636;27;20035;-78
2024/03/15 08:21:01;;;;;;;6.05;1.63;;;14.80;75.80;;;;;;5116297;27;20123;-77
2024/03/15 08:23:46;;;;;;;6.65;1.80;;;14.80;75.80;;;;;;5094868;28;20535;-79
2024/03/15 08:26:34;;;;;;;5.28;2.00;;;14.90;76.00;;;;;;5094455;28;20460;-80
2024/03/15 08:29:20;;;;;;;7.53;1.73;;;15.00;76.10;;;;;;5110038;28;20038;-79
2024/03/15 08:32:06;;;;;;;7.53;2.10;;;15.00;76.00;;;;;;5109893;28;20122;-77
2024/03/15 08:34:51;;;;;;;2.83;1.30;;;15.10;76.10;;;;;;5094972;28;20112;-80
2024/03/15 08:37:38;;;;;;;6.63;1.60;;;15.20;76.10;;;;;;5110059;27;20046;-79
2024/03/15 08:40:22;;;;;;;7.43;1.90;;;15.40;76.20;;;;;;5120277;27;20378;-79
2024/03/15 08:43:08;;;;;;;5.78;1.50;;;15.40;76.00;;;;;;5084178;28;20605;-80
2024/03/15 08:45:54;;;;;;;5.60;2.00;;;15.50;76.00;;;;;;5109376;28;20058;-80
2024/03/15 08:48:39;;;;;;;6.32;1.80;;;15.60;76.10;;;;;;5110079;28;20043;-79
2024/03/15 08:51:24;;;;;;;4.95;2.13;;;15.70;76.00;;;;;;5110189;28;20039;-79
2024/03/15 08:54:08;;;;;;;4.85;1.50;;;15.80;76.00;;;;;;5110389;28;20042;-80
2024/03/15 08:56:53;;;;;;;6.40;2.42;;;15.90;76.00;;;;;;5094387;28;20047;-79
2024/03/15 08:59:38;;;;;;;4.55;1.70;;;15.90;75.90;;;;;;5109846;28;20120;-80
2024/03/15 09:02:22;;;;;;;5.25;1.48;;;16.00;75.90;;;;;;5109468;28;20139;-81
2024/03/15 09:05:11;;;;;;;4.80;2.08;;;16.00;75.70;;;;;;5094841;28;20047;-80
2024/03/15 09:07:57;;;;;;;6.57;1.83;;;16.10;75.80;;;;;;5112866;27;20495;-79
2024/03/15 09:10:42;;;;;;;6.60;2.63;;;16.20;75.80;;;;;;5114785;27;20035;-80
2024/03/15 09:13:29;;;;;;;7.53;1.58;;;16.20;75.70;;;;;;5130070;27;20458;-80
2024/03/15 09:16:14;;;;;;;5.63;1.75;;;16.30;75.70;;;;;;5129399;27;20890;-82
2024/03/15 09:18:59;;;;;;;8.15;2.30;;;16.30;75.40;;;;;;5100099;27;20449;-80
2024/03/15 09:21:44;;;;;;;5.40;1.25;;;16.40;75.50;;;;;;5130075;27;20488;-80
2024/03/15 09:24:31;;;;;;;7.97;2.67;;;16.50;75.40;;;;;;5089562;28;20493;-80
2024/03/15 09:27:16;;;;;;;6.43;1.52;;;16.60;75.40;;;;;;5087883;28;20039;-80
2024/03/15 09:30:16;;;;;;;7.38;2.85;;;16.60;75.10;;;;;;5072416;28;20444;-82
2024/03/15 09:33:00;;;;;;;7.03;2.63;;;16.70;75.10;;;;;;5106456;27;20081;-80
2024/03/15 09:35:46;;;;;;;10.00;2.35;;;16.70;75.00;;;;;;5129648;27;20053;-80
2024/03/15 09:38:32;;;;;;;6.15;2.47;;;16.70;74.90;;;;;;5129809;27;20417;-80
2024/03/15 09:41:17;;;;;;;8.18;1.90;;;16.70;74.70;;;;;;5099511;27;20500;-79
2024/03/15 09:44:02;;;;;;;12.05;2.97;;;16.70;74.70;;;;;;5129349;27;20065;-80
2024/03/15 09:46:48;;;;;;;6.95;2.20;;;16.70;74.70;;;;;;5128636;27;20083;-80
2024/03/15 09:49:32;;;;;;;7.80;2.30;;;16.80;74.70;;;;;;5128858;27;20496;-81
2024/03/15 09:52:18;;;;;;;7.55;2.42;;;16.80;74.60;;;;;;5099165;27;20451;-80
2024/03/15 09:55:10;;;;;;;10.32;2.20;;;16.80;74.60;;;;;;5129588;27;20104;-80
2024/03/15 09:57:54;;;;;;;8.52;1.95;;;16.80;74.50;;;;;;5129144;27;20030;-79
2024/03/15 10:00:41;;;;;;;12.73;3.30;;;16.80;74.40;;;;;;5112666;27;20046;-79
2024/03/15 10:03:27;;;;;;;8.57;2.92;;;16.80;74.20;;;;;;5098857;27;20512;-81
2024/03/15 10:06:11;;;;;;;4.78;1.88;;;16.80;74.20;;;;;;5128635;27;20088;-79
2024/03/15 10:08:56;;;;;;;9.90;2.50;;;16.80;74.10;;;;;;5117377;27;20054;-79
2024/03/15 10:11:42;;;;;;;7.45;2.03;;;16.90;74.20;;;;;;5093463;28;20497;-82
2024/03/15 10:14:26;;;;;;;9.60;2.40;;;17.00;74.20;;;;;;5093012;28;20181;-79
2024/03/15 10:17:14;;;;;;;11.52;3.72;;;17.00;74.00;;;;;;5093093;28;20070;-79
2024/03/15 10:19:58;;;;;;;10.60;3.15;;;17.10;74.00;;;;;;5108328;28;20334;-80
2024/03/15 10:22:43;;;;;;;9.88;2.40;;;17.20;73.90;;;;;;5108301;27;20046;-79
2024/03/15 10:25:34;;;;;;;6.95;2.70;;;17.30;73.90;;;;;;5106477;28;20525;-78
2024/03/15 10:28:21;;;;;;;6.68;2.13;;;17.30;73.70;;;;;;5092464;28;20226;-79
2024/03/15 10:31:05;;;;;;;8.43;2.22;;;17.40;73.70;;;;;;5108483;28;20336;-79
2024/03/15 10:33:50;;;;;;;7.78;2.30;;;17.50;73.70;;;;;;5092726;28;20081;-80
2024/03/15 10:36:35;;;;;;;10.10;2.80;;;17.60;73.70;;;;;;5092821;28;20562;-79
2024/03/15 10:39:20;;;;;;;11.25;3.50;;;17.60;73.60;;;;;;5110696;28;20095;-81
2024/03/15 10:42:07;;;;;;;10.60;3.65;;;17.70;73.60;;;;;;5128106;28;20093;-78
2024/03/15 10:44:51;;;;;;;10.25;2.72;;;17.80;73.50;;;;;;5126688;28;20065;-78
2024/03/15 10:47:36;;;;;;;11.43;3.00;;;18.00;73.50;;;;;;5127934;28;21088;-79
2024/03/15 10:50:27;;;;;;;14.48;3.75;;;18.10;73.30;;;;;;5113756;28;20103;-80
2024/03/15 10:53:16;;;;;;;7.28;2.30;;;18.20;73.20;;;;;;5111045;28;20026;-79
2024/03/15 10:56:04;;;;;;;8.30;2.58;;;18.30;73.10;;;;;;5125616;28;20062;-80
2024/03/15 10:58:48;;;;;;;10.18;2.78;;;18.30;73.00;;;;;;5112516;28;20080;-79
2024/03/15 11:01:33;;;;;;;8.93;2.22;;;18.40;73.50;;;;;;5108382;28;20053;-80
2024/03/15 11:04:17;;;;;;;9.63;3.22;;;18.40;72.80;;;;;;5072663;28;20039;-80
2024/03/15 11:07:02;;;;;;;13.95;2.42;;;18.40;72.70;;;;;;5086079;28;20178;-81
2024/03/15 11:09:47;;;;;;;8.13;2.25;;;18.40;72.70;;;;;;5091953;28;20057;-80
2024/03/15 11:12:37;;;;;;;9.23;2.60;;;18.50;72.80;;;;;;5091898;28;20039;-80
2024/03/15 11:15:23;;;;;;;9.63;2.55;;;18.50;72.50;;;;;;5107795;28;20054;-80
2024/03/15 11:18:09;;;;;;;10.88;2.80;;;18.60;72.60;;;;;;5107108;28;20188;-79
2024/03/15 11:20:57;;;;;;;11.18;3.10;;;18.60;72.40;;;;;;5091367;28;20035;-80
2024/03/15 11:23:41;;;;;;;12.55;2.90;;;18.70;72.40;;;;;;5091498;28;20088;-82
2024/03/15 11:26:29;;;;;;;10.45;2.72;;;18.70;72.30;;;;;;5108176;28;20139;-80
2024/03/15 11:29:17;;;;;;;9.00;2.75;;;18.80;72.20;;;;;;5109217;28;20042;-79
2024/03/15 11:32:01;;;;;;;12.63;2.72;;;18.80;72.00;;;;;;5091642;28;20566;-80
2024/03/15 11:34:48;;;;;;;10.38;3.08;;;18.80;72.00;;;;;;5091825;28;20212;-80
2024/03/15 11:37:32;;;;;;;6.70;3.00;;;18.80;71.90;;;;;;5107325;28;20047;-81
2024/03/15 11:40:17;;;;;;;10.38;2.55;;;18.80;71.80;;;;;;5106477;28;20498;-80
2024/03/15 11:43:02;;;;;;;8.93;3.47;;;18.80;71.70;;;;;;5091343;28;20505;-79
2024/03/15 11:45:49;;;;;;;7.55;2.10;;;18.70;71.50;;;;;;5091480;28;20042;-81
2024/03/15 11:48:33;;;;;;;6.45;1.75;;;18.70;71.50;;;;;;5113534;28;20053;-80
2024/03/15 11:51:18;;;;;;;8.43;2.10;;;18.70;71.50;;;;;;5126873;27;20042;-79
2024/03/15 11:54:15;;;;;;;9.38;2.92;;;18.60;71.30;;;;;;5111957;28;20073;-79
2024/03/15 11:57:01;;;;;;;8.07;2.83;;;18.50;71.00;;;;;;5111568;28;20057;-80
2024/03/15 11:59:47;;;;;;;8.95;2.70;;;18.60;71.30;;;;;;5112113;28;20037;-80
2024/03/15 12:02:31;;;;;;;7.38;2.40;;;18.40;70.90;;;;;;5101909;28;20058;-80
2024/03/15 12:05:16;;;;;;;9.75;2.45;;;18.40;70.90;;;;;;5111613;28;20599;-80
2024/03/15 12:08:00;;;;;;;8.13;2.47;;;18.40;71.00;;;;;;5125785;28;20037;-81
2024/03/15 12:10:46;;;;;;;10.88;3.15;;;18.40;71.00;;;;;;5106730;28;20058;-80
2024/03/15 12:13:31;;;;;;;5.65;1.88;;;18.40;71.00;;;;;;5090635;28;20042;-78
2024/03/15 12:16:15;;;;;;;6.28;3.03;;;18.30;70.80;;;;;;5085247;28;20055;-79
2024/03/15 12:19:00;;;;;;;4.75;1.92;;;18.30;70.80;;;;;;5095288;28;20517;-78
2024/03/15 12:21:46;;;;;;;8.30;2.90;;;18.40;71.00;;;;;;5105010;28;20203;-79
2024/03/15 12:24:30;;;;;;;8.98;2.30;;;18.40;70.80;;;;;;5085133;28;20119;-79
2024/03/15 12:27:15;;;;;;;7.90;1.85;;;18.40;70.70;;;;;;5086044;28;20070;-79
2024/03/15 12:29:59;;;;;;;6.95;2.33;;;18.50;70.80;;;;;;5087399;28;20571;-79
2024/03/15 12:32:44;;;;;;;8.55;2.58;;;18.60;70.80;;;;;;5081887;28;20058;-80
2024/03/15 12:35:29;;;;;;;10.95;3.33;;;18.60;70.60;;;;;;5096895;28;20466;-79
2024/03/15 12:38:18;;;;;;;8.90;3.60;;;18.70;70.70;;;;;;5111004;28;20108;-79
2024/03/15 12:41:02;;;;;;;7.32;1.92;;;18.80;70.70;;;;;;5126320;28;20504;-79
2024/03/15 12:43:49;;;;;;;7.95;1.90;;;18.90;70.70;;;;;;5111692;28;20034;-79
2024/03/15 12:46:36;;;;;;;12.23;3.10;;;18.90;70.50;;;;;;5106338;28;20124;-79
2024/03/15 12:49:21;;;;;;;7.97;2.17;;;19.00;70.40;;;;;;5106267;28;20034;-80
2024/03/15 12:52:13;;;;;;;6.45;1.77;;;19.10;70.40;;;;;;5089908;28;20043;-81
2024/03/15 12:54:57;;;;;;;9.55;2.60;;;19.30;70.40;;;;;;5091005;28;20054;-80
2024/03/15 12:57:47;;;;;;;6.63;2.55;;;19.40;70.30;;;;;;5090941;28;20043;-80
2024/03/15 13:00:32;;;;;;;8.50;2.30;;;19.60;70.30;;;;;;5105874;28;20412;-80
2024/03/15 13:03:18;;;;;;;7.72;1.90;;;19.60;70.10;;;;;;5126293;28;20061;-79
2024/03/15 13:06:02;;;;;;;6.68;2.40;;;19.70;70.10;;;;;;5117329;28;20031;-80
2024/03/15 13:08:47;;;;;;;8.27;2.10;;;19.70;70.00;;;;;;5125875;27;20081;-80
2024/03/15 13:11:32;;;;;;;8.23;2.13;;;19.70;69.80;;;;;;5155068;27;20034;-80
2024/03/15 13:14:16;;;;;;;7.97;2.00;;;19.70;69.80;;;;;;5155474;27;20221;-78
2024/03/15 13:17:03;;;;;;;8.68;2.10;;;19.70;69.70;;;;;;5138795;27;20066;-80
2024/03/15 13:19:47;;;;;;;10.98;3.88;;;19.70;69.70;;;;;;5155406;27;20041;-80
2024/03/15 13:22:32;;;;;;;11.07;2.40;;;19.70;69.70;;;;;;5155081;27;20030;-79
2024/03/15 13:25:16;;;;;;;9.75;2.00;;;19.70;69.50;;;;;;5141035;27;20065;-79
2024/03/15 13:28:01;;;;;;;8.52;3.28;;;19.80;69.60;;;;;;5131600;27;20030;-80
2024/03/15 13:30:45;;;;;;;10.13;2.00;;;19.80;69.40;;;;;;5114351;27;20046;-78
2024/03/15 13:33:32;;;;;;;9.18;2.95;;;19.90;69.40;;;;;;5115402;27;20069;-80
2024/03/15 13:36:16;;;;;;;7.53;3.00;;;19.90;69.20;;;;;;5134206;27;20041;-80
2024/03/15 13:39:01;;;;;;;7.05;2.25;;;20.00;69.10;;;;;;5114624;27;20042;-80
2024/03/15 13:41:49;;;;;;;6.93;2.13;;;20.10;69.10;;;;;;5130100;27;20087;-80
2024/03/15 13:44:35;;;;;;;5.90;1.52;;;20.10;68.90;;;;;;5089285;28;20065;-80
2024/03/15 13:47:19;;;;;;;7.65;1.48;;;20.20;68.80;;;;;;5089052;28;20398;-80
2024/03/15 13:50:07;;;;;;;8.30;2.03;;;20.20;68.70;;;;;;5106204;28;20038;-79
2024/03/15 13:52:52;;;;;;;9.10;1.95;;;20.20;68.60;;;;;;5109337;28;20217;-80
2024/03/15 13:55:36;;;;;;;6.13;1.60;;;20.30;68.70;;;;;;5109619;28;20120;-80
2024/03/15 13:58:21;;;;;;;4.93;1.50;;;20.30;68.50;;;;;;5109594;28;20418;-80
2024/03/15 14:01:11;;;;;;;6.93;2.25;;;20.40;68.50;;;;;;5109277;28;20043;-80
2024/03/15 14:04:01;;;;;;;7.63;1.83;;;20.40;68.30;;;;;;5108834;28;20501;-79
2024/03/15 14:06:46;;;;;;;7.10;2.83;;;20.50;68.30;;;;;;5108998;28;20050;-80
2024/03/15 14:09:31;;;;;;;4.35;1.70;;;20.60;68.40;;;;;;5108601;28;20424;-80
2024/03/15 14:12:16;;;;;;;8.32;3.47;;;20.60;68.20;;;;;;5108351;28;20076;-79
2024/03/15 14:15:00;;;;;;;9.88;1.73;;;20.70;68.20;;;;;;5107717;28;20046;-81
2024/03/15 14:17:50;;;;;;;5.05;1.83;;;20.70;67.90;;;;;;5107930;28;20123;-80
2024/03/15 14:20:35;;;;;;;7.80;1.60;;;20.80;67.90;;;;;;5107506;28;20462;-79
2024/03/15 14:23:20;;;;;;;6.85;2.47;;;20.80;67.70;;;;;;5086452;28;20501;-80
2024/03/15 14:26:05;;;;;;;8.40;1.92;;;20.90;67.70;;;;;;5087078;28;20086;-79